sensor_id;sensor_type;location;lat;lon;timestamp;pressure;altitude;pressure_sealevel;temperature;humidity
35553;BME280;21656;46.054;13.614;2022-07-23T05:41:38;100519.19;;;23.21;66.58
35553;BME280;21656;46.054;13.614;2022-07-23T05:44:04;100517.97;;;23.36;65.57
35553;BME280;21656;46.054;13.614;2022-07-23T05:46:29;100523.28;;;23.38;66.71
35553;BME280;21656;46.054;13.614;2022-07-23T05:48:55;100526.06;;;23.51;64.08
35553;BME280;21656;46.054;13.614;2022-07-23T05:51:21;100515.34;;;23.63;63.90
35553;BME280;21656;46.054;13.614;2022-07-23T05:53:47;100524.06;;;23.80;62.65
35553;BME280;21656;46.054;13.614;2022-07-23T05:56:13;100522.84;;;23.89;64.23
35553;BME280;21656;46.054;13.614;2022-07-23T05:58:39;100520.94;;;23.96;62.70
35553;BME280;21656;46.054;13.614;2022-07-23T06:01:04;100515.91;;;24.13;62.56
35553;BME280;21656;46.054;13.614;2022-07-23T06:03:29;100527.13;;;24.18;61.48
35553;BME280;21656;46.054;13.614;2022-07-23T06:05:55;100528.16;;;24.37;61.22
35553;BME280;21656;46.054;13.614;2022-07-23T06:08:20;100527.09;;;24.25;61.65
35553;BME280;21656;46.054;13.614;2022-07-23T06:10:46;100528.19;;;24.31;60.66
35553;BME280;21656;46.054;13.614;2022-07-23T06:13:11;100530.94;;;24.44;60.82
35553;BME280;21656;46.054;13.614;2022-07-23T06:15:36;100531.34;;;24.61;59.66
35553;BME280;21656;46.054;13.614;2022-07-23T06:18:02;100536.63;;;24.76;58.63
35553;BME280;21656;46.054;13.614;2022-07-23T06:20:27;100531.13;;;24.89;57.60
35553;BME280;21656;46.054;13.614;2022-07-23T06:22:53;100545.06;;;25.01;57.77
35553;BME280;21656;46.054;13.614;2022-07-23T06:25:18;100527.47;;;25.08;57.21
35553;BME280;21656;46.054;13.614;2022-07-23T06:27:46;100540.81;;;25.18;56.84
35553;BME280;21656;46.054;13.614;2022-07-23T06:30:12;100541.00;;;25.30;56.52
35553;BME280;21656;46.054;13.614;2022-07-23T06:32:37;100539.91;;;25.38;56.57
35553;BME280;21656;46.054;13.614;2022-07-23T06:35:03;100546.84;;;25.47;57.20
35553;BME280;21656;46.054;13.614;2022-07-23T06:37:28;100538.75;;;25.52;56.27
35553;BME280;21656;46.054;13.614;2022-07-23T06:39:54;100537.47;;;25.55;55.04
35553;BME280;21656;46.054;13.614;2022-07-23T06:42:19;100536.19;;;25.57;55.87
35553;BME280;21656;46.054;13.614;2022-07-23T06:44:44;100545.72;;;25.61;54.41
35553;BME280;21656;46.054;13.614;2022-07-23T06:47:10;100548.47;;;25.68;54.98
35553;BME280;21656;46.054;13.614;2022-07-23T06:49:35;100542.25;;;25.86;54.79
35553;BME280;21656;46.054;13.614;2022-07-23T06:52:01;100551.69;;;26.03;53.79
35553;BME280;21656;46.054;13.614;2022-07-23T06:54:26;100546.94;;;26.10;54.86
35553;BME280;21656;46.054;13.614;2022-07-23T06:56:51;100546.03;;;26.23;54.26
35553;BME280;21656;46.054;13.614;2022-07-23T06:59:17;100541.44;;;26.35;52.62
35553;BME280;21656;46.054;13.614;2022-07-23T07:01:42;100538.81;;;26.47;52.27
35553;BME280;21656;46.054;13.614;2022-07-23T07:04:08;100540.19;;;26.63;51.48
35553;BME280;21656;46.054;13.614;2022-07-23T07:06:33;100530.09;;;26.75;50.91
35553;BME280;21656;46.054;13.614;2022-07-23T07:08:59;100534.47;;;26.83;50.59
35553;BME280;21656;46.054;13.614;2022-07-23T07:11:24;100536.09;;;26.91;50.71
35553;BME280;21656;46.054;13.614;2022-07-23T07:13:51;100522.44;;;26.96;51.54
35553;BME280;21656;46.054;13.614;2022-07-23T07:16:16;100530.88;;;27.01;50.54
35553;BME280;21656;46.054;13.614;2022-07-23T07:18:41;100526.81;;;27.03;50.17
35553;BME280;21656;46.054;13.614;2022-07-23T07:21:07;100527.91;;;27.02;50.82
35553;BME280;21656;46.054;13.614;2022-07-23T07:23:32;100522.53;;;27.08;51.43
35553;BME280;21656;46.054;13.614;2022-07-23T07:25:57;100519.91;;;27.13;50.20
35553;BME280;21656;46.054;13.614;2022-07-23T07:28:23;100512.56;;;27.25;50.33
35553;BME280;21656;46.054;13.614;2022-07-23T07:30:48;100517.72;;;27.40;49.25
35553;BME280;21656;46.054;13.614;2022-07-23T07:33:14;100518.22;;;27.49;49.06
35553;BME280;21656;46.054;13.614;2022-07-23T07:35:39;100511.16;;;27.53;49.57
35553;BME280;21656;46.054;13.614;2022-07-23T07:38:04;100521.50;;;27.57;49.73
35553;BME280;21656;46.054;13.614;2022-07-23T07:40:30;100516.28;;;27.67;49.56
35553;BME280;21656;46.054;13.614;2022-07-23T07:42:55;100519.56;;;27.76;49.13
35553;BME280;21656;46.054;13.614;2022-07-23T07:45:22;100516.75;;;27.95;48.71
35553;BME280;21656;46.054;13.614;2022-07-23T07:47:49;100515.00;;;28.12;48.45
35553;BME280;21656;46.054;13.614;2022-07-23T07:50:15;100521.50;;;28.18;48.17
35553;BME280;21656;46.054;13.614;2022-07-23T07:52:42;100520.31;;;28.25;47.86
35553;BME280;21656;46.054;13.614;2022-07-23T07:55:09;100514.53;;;28.27;47.96
35553;BME280;21656;46.054;13.614;2022-07-23T07:57:36;100511.56;;;28.28;46.97
35553;BME280;21656;46.054;13.614;2022-07-23T08:00:02;100518.41;;;28.38;48.17
35553;BME280;21656;46.054;13.614;2022-07-23T08:02:28;100520.38;;;28.49;46.88
35553;BME280;21656;46.054;13.614;2022-07-23T08:04:54;100517.88;;;28.59;47.04
35553;BME280;21656;46.054;13.614;2022-07-23T08:07:22;100520.72;;;28.76;46.87
35553;BME280;21656;46.054;13.614;2022-07-23T08:09:48;100512.53;;;28.93;45.45
35553;BME280;21656;46.054;13.614;2022-07-23T08:12:13;100518.31;;;29.03;45.19
35553;BME280;21656;46.054;13.614;2022-07-23T08:14:39;100518.94;;;29.17;44.53
35553;BME280;21656;46.054;13.614;2022-07-23T08:17:04;100513.00;;;29.25;45.20
35553;BME280;21656;46.054;13.614;2022-07-23T08:19:30;100513.94;;;29.31;44.53
35553;BME280;21656;46.054;13.614;2022-07-23T08:21:55;100508.28;;;29.37;44.67
35553;BME280;21656;46.054;13.614;2022-07-23T08:24:21;100503.41;;;29.45;44.75
35553;BME280;21656;46.054;13.614;2022-07-23T08:26:47;100490.09;;;29.58;44.54
35553;BME280;21656;46.054;13.614;2022-07-23T08:29:13;100496.38;;;29.66;43.85
35553;BME280;21656;46.054;13.614;2022-07-23T08:31:39;100493.69;;;29.71;43.31
35553;BME280;21656;46.054;13.614;2022-07-23T08:34:05;100491.09;;;29.81;43.37
35553;BME280;21656;46.054;13.614;2022-07-23T08:36:31;100492.13;;;29.92;43.11
35553;BME280;21656;46.054;13.614;2022-07-23T08:38:58;100483.75;;;30.03;43.07
35553;BME280;21656;46.054;13.614;2022-07-23T08:41:24;100481.16;;;30.31;42.43
35553;BME280;21656;46.054;13.614;2022-07-23T08:43:50;100478.88;;;30.44;41.81
35553;BME280;21656;46.054;13.614;2022-07-23T08:46:16;100473.56;;;30.60;40.09
35553;BME280;21656;46.054;13.614;2022-07-23T08:48:47;100477.31;;;30.87;38.94
35553;BME280;21656;46.054;13.614;2022-07-23T08:51:13;100468.53;;;30.96;38.98
35553;BME280;21656;46.054;13.614;2022-07-23T08:53:40;100475.50;;;30.98;39.32
35553;BME280;21656;46.054;13.614;2022-07-23T08:56:07;100476.69;;;31.02;39.39
35553;BME280;21656;46.054;13.614;2022-07-23T08:58:34;100475.66;;;31.08;38.84
35553;BME280;21656;46.054;13.614;2022-07-23T09:01:01;100473.53;;;31.16;38.67
35553;BME280;21656;46.054;13.614;2022-07-23T09:03:30;100456.13;;;31.25;39.23
35553;BME280;21656;46.054;13.614;2022-07-23T09:05:58;100459.16;;;31.46;37.83
35553;BME280;21656;46.054;13.614;2022-07-23T09:08:38;100462.09;;;31.61;38.02
35553;BME280;21656;46.054;13.614;2022-07-23T09:11:06;100463.84;;;31.67;38.30
35553;BME280;21656;46.054;13.614;2022-07-23T09:13:39;100453.66;;;31.78;38.32
35553;BME280;21656;46.054;13.614;2022-07-23T09:16:14;100447.28;;;32.10;36.09
35553;BME280;21656;46.054;13.614;2022-07-23T09:21:23;100450.41;;;32.56;31.11
35553;BME280;21656;46.054;13.614;2022-07-23T09:26:46;100454.91;;;33.05;29.69
35553;BME280;21656;46.054;13.614;2022-07-23T09:29:23;100455.28;;;33.39;29.50
35553;BME280;21656;46.054;13.614;2022-07-23T09:32:01;100456.44;;;33.48;29.68
35553;BME280;21656;46.054;13.614;2022-07-23T09:34:35;100447.50;;;33.46;29.77
35553;BME280;21656;46.054;13.614;2022-07-23T09:37:17;100451.91;;;33.27;30.18
35553;BME280;21656;46.054;13.614;2022-07-23T09:39:45;100445.22;;;33.22;30.61
35553;BME280;21656;46.054;13.614;2022-07-23T09:42:17;100438.03;;;33.52;29.56
35553;BME280;21656;46.054;13.614;2022-07-23T09:44:49;100438.94;;;33.63;29.98
35553;BME280;21656;46.054;13.614;2022-07-23T09:47:16;100442.00;;;33.87;29.45
35553;BME280;21656;46.054;13.614;2022-07-23T09:50:05;100439.22;;;34.02;28.48
35553;BME280;21656;46.054;13.614;2022-07-23T09:52:36;100440.38;;;34.12;27.86
35553;BME280;21656;46.054;13.614;2022-07-23T09:55:04;100432.53;;;34.03;28.50
35553;BME280;21656;46.054;13.614;2022-07-23T09:57:31;100424.44;;;33.97;29.22
35553;BME280;21656;46.054;13.614;2022-07-23T10:00:00;100433.66;;;34.18;28.78
35553;BME280;21656;46.054;13.614;2022-07-23T10:02:28;100439.22;;;34.28;27.81
35553;BME280;21656;46.054;13.614;2022-07-23T10:04:54;100429.19;;;34.32;28.15
35553;BME280;21656;46.054;13.614;2022-07-23T10:07:25;100428.63;;;34.25;26.45
35553;BME280;21656;46.054;13.614;2022-07-23T10:09:52;100426.41;;;34.27;27.88
35553;BME280;21656;46.054;13.614;2022-07-23T10:12:19;100437.00;;;34.25;27.25
35553;BME280;21656;46.054;13.614;2022-07-23T10:15:04;100421.59;;;34.58;25.59
35553;BME280;21656;46.054;13.614;2022-07-23T10:17:32;100429.09;;;34.73;26.19
35553;BME280;21656;46.054;13.614;2022-07-23T10:19:57;100428.28;;;34.67;26.92
35553;BME280;21656;46.054;13.614;2022-07-23T10:22:29;100427.69;;;34.76;25.39
35553;BME280;21656;46.054;13.614;2022-07-23T10:30:51;100423.78;;;34.82;24.94
35553;BME280;21656;46.054;13.614;2022-07-23T10:41:14;100421.34;;;35.30;23.36
35553;BME280;21656;46.054;13.614;2022-07-23T10:43:39;100426.34;;;35.38;21.80
35553;BME280;21656;46.054;13.614;2022-07-23T10:46:28;100421.03;;;35.31;22.24
35553;BME280;21656;46.054;13.614;2022-07-23T10:54:50;100408.22;;;35.25;23.95
35553;BME280;21656;46.054;13.614;2022-07-23T10:57:22;100412.94;;;35.35;24.12
35553;BME280;21656;46.054;13.614;2022-07-23T11:02:42;100409.13;;;35.60;22.85
35553;BME280;21656;46.054;13.614;2022-07-23T11:05:09;100394.75;;;35.72;23.30
35553;BME280;21656;46.054;13.614;2022-07-23T11:07:36;100403.13;;;35.77;23.33
35553;BME280;21656;46.054;13.614;2022-07-23T11:10:03;100383.75;;;35.86;22.92
35553;BME280;21656;46.054;13.614;2022-07-23T11:17:35;100388.53;;;36.14;22.35
35553;BME280;21656;46.054;13.614;2022-07-23T11:22:39;100385.91;;;36.23;22.20
35553;BME280;21656;46.054;13.614;2022-07-23T11:25:06;100385.25;;;36.36;22.01
35553;BME280;21656;46.054;13.614;2022-07-23T11:27:42;100382.50;;;36.31;21.43
35553;BME280;21656;46.054;13.614;2022-07-23T11:30:09;100392.75;;;36.41;19.54
35553;BME280;21656;46.054;13.614;2022-07-23T11:32:37;100383.28;;;36.37;20.38
35553;BME280;21656;46.054;13.614;2022-07-23T11:35:27;100367.94;;;36.53;20.31
35553;BME280;21656;46.054;13.614;2022-07-23T11:37:54;100365.41;;;36.57;20.27
35553;BME280;21656;46.054;13.614;2022-07-23T11:40:27;100365.84;;;36.40;20.85
35553;BME280;21656;46.054;13.614;2022-07-23T11:43:12;100365.72;;;36.50;21.47
35553;BME280;21656;46.054;13.614;2022-07-23T11:45:41;100365.69;;;36.79;19.74
35553;BME280;21656;46.054;13.614;2022-07-23T11:50:43;100364.56;;;36.56;20.61
35553;BME280;21656;46.054;13.614;2022-07-23T11:53:08;100356.88;;;36.67;21.78
35553;BME280;21656;46.054;13.614;2022-07-23T11:55:34;100359.47;;;36.82;22.25
35553;BME280;21656;46.054;13.614;2022-07-23T11:57:59;100356.22;;;36.94;21.93
35553;BME280;21656;46.054;13.614;2022-07-23T12:00:29;100358.19;;;36.94;22.71
35553;BME280;21656;46.054;13.614;2022-07-23T12:03:01;100348.41;;;36.91;23.51
35553;BME280;21656;46.054;13.614;2022-07-23T12:05:32;100346.63;;;37.00;24.39
35553;BME280;21656;46.054;13.614;2022-07-23T12:08:00;100338.91;;;37.11;24.03
35553;BME280;21656;46.054;13.614;2022-07-23T12:13:04;100337.16;;;37.15;24.75
35553;BME280;21656;46.054;13.614;2022-07-23T12:15:36;100345.66;;;37.29;24.33
35553;BME280;21656;46.054;13.614;2022-07-23T12:18:08;100335.88;;;37.45;24.19
35553;BME280;21656;46.054;13.614;2022-07-23T12:20:56;100334.38;;;37.53;23.76
35553;BME280;21656;46.054;13.614;2022-07-23T12:23:23;100344.56;;;37.44;23.87
35553;BME280;21656;46.054;13.614;2022-07-23T12:25:50;100337.69;;;37.36;23.35
35553;BME280;21656;46.054;13.614;2022-07-23T12:28:27;100334.41;;;37.48;23.40
35553;BME280;21656;46.054;13.614;2022-07-23T12:30:55;100336.31;;;37.52;23.13
35553;BME280;21656;46.054;13.614;2022-07-23T12:33:24;100334.09;;;37.49;22.45
35553;BME280;21656;46.054;13.614;2022-07-23T12:35:52;100327.13;;;37.47;22.15
35553;BME280;21656;46.054;13.614;2022-07-23T12:38:21;100332.97;;;37.50;21.71
35553;BME280;21656;46.054;13.614;2022-07-23T12:40:55;100335.25;;;37.48;22.13
35553;BME280;21656;46.054;13.614;2022-07-23T12:43:29;100330.84;;;37.61;22.04
35553;BME280;21656;46.054;13.614;2022-07-23T12:46:02;100338.81;;;37.16;21.70
35553;BME280;21656;46.054;13.614;2022-07-23T12:48:33;100325.97;;;36.91;21.58
35553;BME280;21656;46.054;13.614;2022-07-23T12:51:04;100327.13;;;36.90;19.70
35553;BME280;21656;46.054;13.614;2022-07-23T12:53:31;100320.34;;;37.15;19.35
35553;BME280;21656;46.054;13.614;2022-07-23T12:56:00;100319.34;;;37.25;19.65
35553;BME280;21656;46.054;13.614;2022-07-23T12:58:26;100321.97;;;36.97;18.70
35553;BME280;21656;46.054;13.614;2022-07-23T13:00:56;100322.25;;;36.96;18.70
35553;BME280;21656;46.054;13.614;2022-07-23T13:03:22;100321.34;;;37.00;18.85
35553;BME280;21656;46.054;13.614;2022-07-23T13:05:49;100328.25;;;36.89;17.87
35553;BME280;21656;46.054;13.614;2022-07-23T13:08:15;100315.66;;;36.86;18.33
35553;BME280;21656;46.054;13.614;2022-07-23T13:10:40;100320.09;;;37.12;17.40
35553;BME280;21656;46.054;13.614;2022-07-23T13:13:12;100319.69;;;36.99;17.18
35553;BME280;21656;46.054;13.614;2022-07-23T13:15:38;100320.69;;;37.08;18.38
35553;BME280;21656;46.054;13.614;2022-07-23T13:18:03;100315.31;;;37.31;19.29
35553;BME280;21656;46.054;13.614;2022-07-23T13:20:29;100308.28;;;37.47;19.14
35553;BME280;21656;46.054;13.614;2022-07-23T13:22:57;100307.16;;;37.48;18.57
35553;BME280;21656;46.054;13.614;2022-07-23T13:25:22;100307.69;;;37.50;18.91
35553;BME280;21656;46.054;13.614;2022-07-23T13:27:47;100301.84;;;37.47;18.94
35553;BME280;21656;46.054;13.614;2022-07-23T13:30:13;100320.41;;;37.10;17.56
35553;BME280;21656;46.054;13.614;2022-07-23T13:32:40;100309.38;;;36.95;18.00
35553;BME280;21656;46.054;13.614;2022-07-23T13:35:07;100324.22;;;36.76;17.83
35553;BME280;21656;46.054;13.614;2022-07-23T13:37:33;100321.78;;;36.70;17.67
35553;BME280;21656;46.054;13.614;2022-07-23T13:39:59;100317.69;;;36.62;18.41
35553;BME280;21656;46.054;13.614;2022-07-23T13:42:25;100319.06;;;36.64;18.35
35553;BME280;21656;46.054;13.614;2022-07-23T13:44:51;100313.50;;;36.59;19.10
35553;BME280;21656;46.054;13.614;2022-07-23T13:47:17;100312.19;;;36.52;19.34
35553;BME280;21656;46.054;13.614;2022-07-23T13:49:43;100308.72;;;36.60;18.88
35553;BME280;21656;46.054;13.614;2022-07-23T13:52:09;100294.97;;;36.82;18.67
35553;BME280;21656;46.054;13.614;2022-07-23T13:54:35;100313.09;;;36.90;17.69
35553;BME280;21656;46.054;13.614;2022-07-23T13:57:00;100303.00;;;36.89;18.07
35553;BME280;21656;46.054;13.614;2022-07-23T13:59:26;100311.13;;;36.91;17.24
35553;BME280;21656;46.054;13.614;2022-07-23T14:01:51;100303.16;;;36.98;17.00
35553;BME280;21656;46.054;13.614;2022-07-23T14:04:17;100300.25;;;36.84;17.47
35553;BME280;21656;46.054;13.614;2022-07-23T14:06:43;100295.94;;;36.73;18.67
35553;BME280;21656;46.054;13.614;2022-07-23T14:09:08;100308.66;;;36.65;18.96
35553;BME280;21656;46.054;13.614;2022-07-23T14:11:34;100301.38;;;36.64;18.42
35553;BME280;21656;46.054;13.614;2022-07-23T14:13:59;100303.34;;;36.63;17.91
35553;BME280;21656;46.054;13.614;2022-07-23T14:16:26;100294.19;;;36.58;18.51
35553;BME280;21656;46.054;13.614;2022-07-23T14:18:52;100300.31;;;36.60;18.94
35553;BME280;21656;46.054;13.614;2022-07-23T14:21:17;100292.84;;;36.50;19.35
35553;BME280;21656;46.054;13.614;2022-07-23T14:23:43;100297.75;;;36.39;19.07
35553;BME280;21656;46.054;13.614;2022-07-23T14:26:09;100292.88;;;36.26;19.23
35553;BME280;21656;46.054;13.614;2022-07-23T14:28:35;100288.38;;;36.25;19.59
35553;BME280;21656;46.054;13.614;2022-07-23T14:31:01;100288.38;;;36.25;20.13
35553;BME280;21656;46.054;13.614;2022-07-23T14:33:27;100275.19;;;36.26;20.91
35553;BME280;21656;46.054;13.614;2022-07-23T14:35:53;100279.03;;;36.35;20.49
35553;BME280;21656;46.054;13.614;2022-07-23T14:38:19;100278.41;;;36.38;20.09
35553;BME280;21656;46.054;13.614;2022-07-23T14:40:45;100266.66;;;36.36;20.82
35553;BME280;21656;46.054;13.614;2022-07-23T14:43:11;100271.31;;;36.45;19.92
35553;BME280;21656;46.054;13.614;2022-07-23T14:45:36;100267.75;;;36.40;20.18
35553;BME280;21656;46.054;13.614;2022-07-23T14:48:02;100262.56;;;36.28;19.27
35553;BME280;21656;46.054;13.614;2022-07-23T14:50:28;100259.59;;;36.19;19.51
35553;BME280;21656;46.054;13.614;2022-07-23T14:52:54;100262.53;;;36.04;19.10
35553;BME280;21656;46.054;13.614;2022-07-23T14:55:19;100260.81;;;36.08;19.47
35553;BME280;21656;46.054;13.614;2022-07-23T14:57:45;100246.84;;;36.03;19.36
35553;BME280;21656;46.054;13.614;2022-07-23T15:00:11;100246.03;;;36.02;19.23
35553;BME280;21656;46.054;13.614;2022-07-23T15:02:37;100245.31;;;35.92;18.94
35553;BME280;21656;46.054;13.614;2022-07-23T15:05:03;100257.13;;;36.13;19.34
35553;BME280;21656;46.054;13.614;2022-07-23T15:07:29;100249.66;;;36.03;19.40
35553;BME280;21656;46.054;13.614;2022-07-23T15:09:56;100242.72;;;35.95;20.16
35553;BME280;21656;46.054;13.614;2022-07-23T15:12:22;100232.78;;;35.84;20.44
35553;BME280;21656;46.054;13.614;2022-07-23T15:14:48;100231.59;;;35.90;19.39
35553;BME280;21656;46.054;13.614;2022-07-23T15:17:13;100242.72;;;35.95;20.28
35553;BME280;21656;46.054;13.614;2022-07-23T15:19:41;100243.41;;;35.87;20.39
35553;BME280;21656;46.054;13.614;2022-07-23T15:22:08;100245.38;;;35.87;19.80
35553;BME280;21656;46.054;13.614;2022-07-23T15:24:33;100245.66;;;36.14;19.42
35553;BME280;21656;46.054;13.614;2022-07-23T15:26:59;100249.91;;;36.07;18.20
35553;BME280;21656;46.054;13.614;2022-07-23T15:29:24;100247.28;;;35.91;18.15
35553;BME280;21656;46.054;13.614;2022-07-23T15:31:50;100248.75;;;35.84;19.06
35553;BME280;21656;46.054;13.614;2022-07-23T15:34:15;100251.25;;;35.85;18.42
35553;BME280;21656;46.054;13.614;2022-07-23T15:36:41;100254.38;;;35.84;19.62
35553;BME280;21656;46.054;13.614;2022-07-23T15:39:07;100253.88;;;35.76;18.12
35553;BME280;21656;46.054;13.614;2022-07-23T15:41:33;100248.94;;;35.68;17.66
35553;BME280;21656;46.054;13.614;2022-07-23T15:43:58;100249.41;;;35.75;18.68
35553;BME280;21656;46.054;13.614;2022-07-23T15:46:24;100256.19;;;35.69;18.00
35553;BME280;21656;46.054;13.614;2022-07-23T15:48:50;100255.09;;;35.65;18.44
35553;BME280;21656;46.054;13.614;2022-07-23T15:51:18;100256.84;;;35.56;18.49
35553;BME280;21656;46.054;13.614;2022-07-23T15:53:43;100256.91;;;35.51;17.60
35553;BME280;21656;46.054;13.614;2022-07-23T15:56:09;100256.06;;;35.50;18.07
35553;BME280;21656;46.054;13.614;2022-07-23T15:58:36;100252.41;;;35.50;18.33
35553;BME280;21656;46.054;13.614;2022-07-23T16:01:02;100249.75;;;35.34;18.56
35553;BME280;21656;46.054;13.614;2022-07-23T16:03:35;100255.44;;;35.24;18.96
35553;BME280;21656;46.054;13.614;2022-07-23T16:06:01;100256.09;;;35.11;17.21
35553;BME280;21656;46.054;13.614;2022-07-23T16:08:27;100248.63;;;34.96;18.20
35553;BME280;21656;46.054;13.614;2022-07-23T16:10:52;100245.88;;;34.91;18.96
35553;BME280;21656;46.054;13.614;2022-07-23T16:13:18;100254.00;;;34.87;18.47
35553;BME280;21656;46.054;13.614;2022-07-23T16:15:45;100251.28;;;34.77;18.92
35553;BME280;21656;46.054;13.614;2022-07-23T16:18:11;100244.03;;;34.71;18.75
35553;BME280;21656;46.054;13.614;2022-07-23T16:20:38;100245.44;;;34.68;19.55
35553;BME280;21656;46.054;13.614;2022-07-23T16:23:05;100241.00;;;34.57;20.43
35553;BME280;21656;46.054;13.614;2022-07-23T16:25:32;100250.50;;;34.56;20.87
35553;BME280;21656;46.054;13.614;2022-07-23T16:27:58;100244.69;;;34.47;21.32
35553;BME280;21656;46.054;13.614;2022-07-23T16:30:24;100240.53;;;34.40;21.83
35553;BME280;21656;46.054;13.614;2022-07-23T16:32:49;100250.06;;;34.39;22.08
35553;BME280;21656;46.054;13.614;2022-07-23T16:35:15;100252.56;;;34.35;22.38
35553;BME280;21656;46.054;13.614;2022-07-23T16:37:41;100247.31;;;34.23;23.04
35553;BME280;21656;46.054;13.614;2022-07-23T16:40:08;100255.69;;;34.18;23.81
35553;BME280;21656;46.054;13.614;2022-07-23T16:42:35;100257.44;;;34.09;23.74
35553;BME280;21656;46.054;13.614;2022-07-23T16:45:02;100264.97;;;34.03;24.50
35553;BME280;21656;46.054;13.614;2022-07-23T16:47:28;100254.34;;;34.00;24.66
35553;BME280;21656;46.054;13.614;2022-07-23T16:49:53;100263.59;;;33.91;24.71
35553;BME280;21656;46.054;13.614;2022-07-23T16:52:19;100271.13;;;33.90;25.09
35553;BME280;21656;46.054;13.614;2022-07-23T16:54:45;100271.97;;;33.91;25.88
35553;BME280;21656;46.054;13.614;2022-07-23T16:57:11;100272.53;;;33.82;26.68
35553;BME280;21656;46.054;13.614;2022-07-23T16:59:37;100274.50;;;33.72;27.32
35553;BME280;21656;46.054;13.614;2022-07-23T17:02:03;100270.06;;;33.60;27.18
35553;BME280;21656;46.054;13.614;2022-07-23T17:04:29;100271.72;;;33.46;27.73
35553;BME280;21656;46.054;13.614;2022-07-23T17:06:54;100275.91;;;33.38;28.50
35553;BME280;21656;46.054;13.614;2022-07-23T17:09:20;100274.75;;;33.34;29.11
35553;BME280;21656;46.054;13.614;2022-07-23T17:11:46;100271.72;;;33.36;29.19
35553;BME280;21656;46.054;13.614;2022-07-23T17:14:12;100279.78;;;33.27;30.43
35553;BME280;21656;46.054;13.614;2022-07-23T17:16:38;100275.06;;;33.17;30.62
35553;BME280;21656;46.054;13.614;2022-07-23T17:19:05;100287.25;;;33.01;32.07
35553;BME280;21656;46.054;13.614;2022-07-23T17:21:33;100295.31;;;32.82;32.42
35553;BME280;21656;46.054;13.614;2022-07-23T17:24:00;100296.38;;;32.71;32.43
35553;BME280;21656;46.054;13.614;2022-07-23T17:26:26;100296.34;;;32.60;33.38
35553;BME280;21656;46.054;13.614;2022-07-23T17:28:52;100295.41;;;32.45;33.66
35553;BME280;21656;46.054;13.614;2022-07-23T17:31:18;100295.66;;;32.38;34.05
35553;BME280;21656;46.054;13.614;2022-07-23T17:33:44;100292.84;;;32.33;34.82
35553;BME280;21656;46.054;13.614;2022-07-23T17:36:11;100290.88;;;32.28;35.16
35553;BME280;21656;46.054;13.614;2022-07-23T17:38:38;100289.44;;;32.21;35.86
35553;BME280;21656;46.054;13.614;2022-07-23T17:41:04;100290.28;;;32.16;35.99
35553;BME280;21656;46.054;13.614;2022-07-23T17:43:29;100288.28;;;32.11;36.26
35553;BME280;21656;46.054;13.614;2022-07-23T17:45:56;100291.63;;;32.08;36.23
35553;BME280;21656;46.054;13.614;2022-07-23T17:48:23;100294.50;;;31.86;38.36
35553;BME280;21656;46.054;13.614;2022-07-23T17:50:50;100301.41;;;31.79;37.93
35553;BME280;21656;46.054;13.614;2022-07-23T17:53:16;100305.22;;;31.67;37.88
35553;BME280;21656;46.054;13.614;2022-07-23T17:55:41;100301.84;;;31.60;37.99
35553;BME280;21656;46.054;13.614;2022-07-23T17:58:07;100301.47;;;31.51;37.71
35553;BME280;21656;46.054;13.614;2022-07-23T18:00:36;100303.91;;;31.43;39.79
35553;BME280;21656;46.054;13.614;2022-07-23T18:03:03;100305.47;;;31.34;39.80
35553;BME280;21656;46.054;13.614;2022-07-23T18:05:29;100306.72;;;31.21;39.97
35553;BME280;21656;46.054;13.614;2022-07-23T18:07:55;100308.28;;;31.12;39.71
35553;BME280;21656;46.054;13.614;2022-07-23T18:10:21;100317.56;;;30.73;41.16
35553;BME280;21656;46.054;13.614;2022-07-23T18:12:47;100315.63;;;30.74;40.59
35553;BME280;21656;46.054;13.614;2022-07-23T18:15:13;100322.88;;;30.75;40.69
35553;BME280;21656;46.054;13.614;2022-07-23T18:17:39;100322.56;;;30.71;41.28
35553;BME280;21656;46.054;13.614;2022-07-23T18:20:06;100321.41;;;30.67;40.96
35553;BME280;21656;46.054;13.614;2022-07-23T18:22:32;100331.34;;;30.63;41.83
35553;BME280;21656;46.054;13.614;2022-07-23T18:24:58;100333.81;;;30.59;41.90
35553;BME280;21656;46.054;13.614;2022-07-23T18:27:23;100339.84;;;30.51;42.12
35553;BME280;21656;46.054;13.614;2022-07-23T18:29:49;100330.53;;;30.23;43.38
35553;BME280;21656;46.054;13.614;2022-07-23T18:32:15;100348.53;;;30.21;42.74
35553;BME280;21656;46.054;13.614;2022-07-23T18:34:41;100347.13;;;30.01;43.43
35553;BME280;21656;46.054;13.614;2022-07-23T18:37:10;100350.00;;;29.90;43.30
35553;BME280;21656;46.054;13.614;2022-07-23T18:39:36;100351.44;;;29.75;43.54
35553;BME280;21656;46.054;13.614;2022-07-23T18:42:02;100358.81;;;29.53;44.04
35553;BME280;21656;46.054;13.614;2022-07-23T18:44:35;100358.53;;;29.37;44.40
35553;BME280;21656;46.054;13.614;2022-07-23T18:47:03;100359.97;;;29.40;44.98
35553;BME280;21656;46.054;13.614;2022-07-23T18:49:29;100371.97;;;29.46;44.92
35553;BME280;21656;46.054;13.614;2022-07-23T18:51:54;100374.25;;;29.49;45.34
35553;BME280;21656;46.054;13.614;2022-07-23T18:54:21;100371.16;;;29.62;44.26
35553;BME280;21656;46.054;13.614;2022-07-23T18:56:47;100376.97;;;29.60;44.14
35553;BME280;21656;46.054;13.614;2022-07-23T18:59:13;100377.09;;;29.66;43.78
35553;BME280;21656;46.054;13.614;2022-07-23T19:01:38;100378.41;;;29.34;45.18